Mitcheldean, United Kingdom
Current Conditions -  °F | °C
As of 6:20 AM on Friday 31 Oct 2014 (Local Time) from EGGD Reporting Station
Scattered Clouds Scattered Clouds  
Wind Chill: 57°   Ceiling: Unl
Heat Index: 57°   Visibility: 3mi
Dew Point: 55°   Wind: 9mph
Humidity: 94%   Direction: 120°ESE
Pressure: 29.97"   Gusts: NA
Location:  51.86°N, 2.49°W
Report Text: EGGD 310620Z 12008KT 5000 SCT007 14/13 Q1015
Loading
Personal Weather Stations






























Interactive Weather Map
Tropical Storm Tracking
New forecast layout! Learn more

10-Day Weather Forecast

Advertisements
Track Severe Weather on mobile